createdAt,value
2023-04-11T04:23:25.775Z,99878.97
2023-04-11T04:26:10.018Z,99857.25
2023-04-11T04:28:38.397Z,99889.50
2023-04-11T04:31:08.670Z,99898.78
2023-04-11T04:33:37.058Z,99885.31
2023-04-11T04:36:10.816Z,99906.69
2023-04-11T04:38:42.455Z,99890.28
2023-04-11T04:41:15.992Z,99906.13
2023-04-11T04:43:44.544Z,99876.56
2023-04-11T04:46:12.806Z,99903.13
2023-04-11T04:48:44.362Z,99894.50
2023-04-11T04:51:14.694Z,99890.09
2023-04-11T04:53:53.880Z,99901.31
2023-04-11T04:56:38.977Z,99905.75
2023-04-11T04:59:16.669Z,99908.31
2023-04-11T05:01:48.340Z,99914.25
2023-04-11T05:04:19.134Z,99904.19
2023-04-11T05:06:49.896Z,99905.16
2023-04-11T05:09:23.106Z,99895.34
2023-04-11T05:11:52.333Z,99928.66
2023-04-11T05:20:29.803Z,99916.16
2023-04-11T05:23:13.745Z,99925.41
2023-04-11T05:25:46.661Z,99926.25
2023-04-11T05:28:17.522Z,99929.19
2023-04-11T05:30:49.850Z,99899.50
2023-04-11T05:33:18.495Z,99912.84
2023-04-11T05:35:48.865Z,99935.16
2023-04-11T05:38:17.782Z,99923.94
2023-04-11T05:40:47.445Z,99922.03
2023-04-11T05:43:23.052Z,99942.41
2023-04-11T05:45:52.062Z,99929.28
2023-04-11T05:48:21.010Z,99948.47
2023-04-11T05:50:50.973Z,99948.19
2023-04-11T05:53:19.652Z,99913.78
2023-04-11T05:55:50.490Z,99955.00
2023-04-11T05:58:21.690Z,99962.47
2023-04-11T06:00:49.899Z,99962.03
2023-04-11T06:03:21.442Z,99969.72
2023-04-11T06:05:54.414Z,99967.09
2023-04-11T06:08:31.402Z,99981.75
2023-04-11T06:11:00.890Z,99966.31
2023-04-11T06:13:29.308Z,99983.31
2023-04-11T06:16:19.610Z,99960.47
2023-04-11T06:18:47.900Z,99985.25
2023-04-11T06:21:17.410Z,99995.75
2023-04-11T06:24:00.800Z,99991.59
2023-04-11T06:26:31.450Z,100011.19
2023-04-11T06:29:00.464Z,99942.44
2023-04-11T06:31:29.057Z,100004.28
2023-04-11T06:34:01.819Z,99998.63
2023-04-11T06:36:49.255Z,99989.06
2023-04-11T06:42:02.305Z,100001.00
2023-04-11T06:44:35.781Z,100002.38
2023-04-11T06:47:04.286Z,100003.25
2023-04-11T06:49:34.872Z,100017.66
2023-04-11T06:52:05.440Z,100010.69
2023-04-11T06:54:35.511Z,100005.56
2023-04-11T06:57:06.307Z,100020.91
2023-04-11T06:59:35.273Z,100017.84
2023-04-11T07:02:16.013Z,100031.22
2023-04-11T07:04:45.497Z,100022.09
2023-04-11T07:07:38.956Z,100033.91
2023-04-11T07:10:30.714Z,100030.81
2023-04-11T07:13:21.614Z,100029.78
2023-04-11T07:18:49.098Z,100034.16
2023-04-11T07:21:21.822Z,100049.06
2023-04-11T07:23:52.833Z,100053.06
2023-04-11T07:26:24.264Z,100053.56
2023-04-11T07:28:54.414Z,100033.28
2023-04-11T07:31:23.555Z,100049.28
2023-04-11T07:33:58.468Z,100050.72
2023-04-11T07:36:27.802Z,100037.09
2023-04-11T07:38:58.922Z,100048.06
2023-04-11T07:41:28.931Z,100056.94
2023-04-11T07:44:10.809Z,100052.06
2023-04-11T07:49:24.851Z,100008.34
2023-04-11T07:51:53.273Z,100053.69
2023-04-11T07:54:25.220Z,100049.66
2023-04-11T07:56:55.179Z,100022.91
2023-04-11T07:59:29.398Z,100036.41
2023-04-11T08:02:16.720Z,100017.94
2023-04-11T08:04:44.978Z,100041.84
2023-04-11T08:07:20.922Z,100014.00
2023-04-11T08:09:54.186Z,100037.22
2023-04-11T08:12:24.409Z,100011.97
2023-04-11T08:15:02.170Z,100024.63
2023-04-11T08:17:46.481Z,100070.28
2023-04-11T08:20:16.384Z,100056.50
2023-04-11T08:22:52.327Z,100018.72
2023-04-11T08:25:26.324Z,100061.81
2023-04-11T08:27:57.023Z,100031.47
2023-04-11T08:31:17.073Z,100079.72
2023-04-11T08:40:42.631Z,100075.19
2023-04-11T08:43:25.434Z,100075.25
2023-04-11T08:48:36.938Z,100084.00
2023-04-11T08:51:26.936Z,100081.88
2023-04-11T09:00:16.035Z,100042.25
2023-04-11T09:02:58.525Z,100074.97
2023-04-11T09:05:28.536Z,100090.53
2023-04-11T09:08:13.428Z,100083.69
2023-04-11T09:10:48.099Z,100087.50
2023-04-11T09:13:23.702Z,100077.97
2023-04-11T09:16:10.110Z,100104.75
2023-04-11T09:18:42.684Z,100103.34
2023-04-11T09:21:14.157Z,100084.81
2023-04-11T09:23:44.034Z,100100.19
2023-04-11T09:26:15.875Z,100099.28
2023-04-11T09:28:54.318Z,100090.41
2023-04-11T09:31:41.422Z,100105.63
2023-04-11T09:34:10.137Z,100102.13
2023-04-11T09:36:40.658Z,100091.97
2023-04-11T09:39:20.127Z,100114.19
2023-04-11T09:41:53.056Z,100110.94
2023-04-11T09:44:22.398Z,100093.50
2023-04-11T09:47:03.681Z,100106.06
2023-04-11T09:49:35.233Z,100103.44
2023-04-11T09:52:06.904Z,100119.97
2023-04-11T09:54:44.939Z,100112.69
2023-04-11T09:57:20.284Z,100105.63
2023-04-11T09:59:48.943Z,100084.75
2023-04-11T10:02:21.139Z,100059.91
2023-04-11T10:04:54.842Z,100089.63
2023-04-11T10:07:25.384Z,100100.59
2023-04-11T10:09:55.829Z,100090.19
2023-04-11T10:12:34.532Z,100110.59
2023-04-11T10:15:10.779Z,100104.91
2023-04-11T10:18:12.846Z,100097.94
2023-04-11T10:20:46.326Z,100087.97
2023-04-11T10:26:04.974Z,100092.06
2023-04-11T10:28:41.407Z,100093.03
2023-04-11T10:31:14.585Z,100100.44
2023-04-11T10:34:15.951Z,100090.69
2023-04-11T10:37:06.204Z,100083.41
2023-04-11T10:40:09.795Z,100118.41
2023-04-11T10:42:41.926Z,100097.00
2023-04-11T10:45:24.021Z,100100.13
2023-04-11T10:48:14.010Z,100071.44
2023-04-11T10:50:45.859Z,100097.25
2023-04-11T10:53:41.081Z,100091.72
2023-04-11T10:56:11.589Z,100101.03
2023-04-11T10:58:42.359Z,100093.66
2023-04-11T11:01:31.634Z,100093.16
2023-04-11T11:04:07.733Z,100089.63
2023-04-11T11:06:50.926Z,100087.72
2023-04-11T11:09:29.064Z,100075.59
2023-04-11T11:12:07.542Z,100088.41
2023-04-11T11:14:36.642Z,100103.53
2023-04-11T11:17:07.882Z,100095.41
2023-04-11T11:19:37.900Z,100051.22
2023-04-11T11:22:18.089Z,100081.50
2023-04-11T11:24:48.239Z,100085.97
2023-04-11T11:27:29.688Z,100076.25
2023-04-11T11:30:00.769Z,100060.66
2023-04-11T11:32:33.060Z,100070.06
2023-04-11T11:35:13.533Z,100058.19
2023-04-11T11:37:46.482Z,100070.06
2023-04-11T11:40:18.117Z,100102.47
2023-04-11T11:42:53.447Z,100070.28
2023-04-11T11:45:23.075Z,100071.00
2023-04-11T11:48:00.008Z,100063.69
2023-04-11T11:50:30.519Z,100057.94
2023-04-11T11:53:14.008Z,100064.47
2023-04-11T11:55:47.196Z,100086.72
2023-04-11T11:58:16.386Z,100063.66
2023-04-11T12:00:44.632Z,100093.34
2023-04-11T12:03:13.148Z,100090.00
2023-04-11T12:05:44.210Z,100075.44
2023-04-11T12:08:14.882Z,100075.94
2023-04-11T12:10:45.206Z,100084.56
2023-04-11T12:13:40.520Z,100089.41
2023-04-11T12:16:09.175Z,100065.22
2023-04-11T12:18:42.600Z,100093.81
2023-04-11T12:21:12.171Z,100059.84
2023-04-11T12:23:48.412Z,100091.91
2023-04-11T12:26:23.890Z,100079.78
2023-04-11T12:28:58.001Z,100071.31
2023-04-11T12:31:28.092Z,100057.06
2023-04-11T12:33:58.866Z,100040.53
2023-04-11T12:36:30.018Z,100070.41
2023-04-11T12:38:59.630Z,100075.69
2023-04-11T12:41:36.021Z,100052.31
2023-04-11T12:44:04.411Z,100054.69
2023-04-11T12:46:33.595Z,100080.81
2023-04-11T12:49:02.943Z,100071.19
2023-04-11T12:51:32.386Z,100078.09
2023-04-11T12:54:03.941Z,100049.25
2023-04-11T12:56:34.034Z,100080.91
2023-04-11T12:59:02.865Z,100071.47
2023-04-11T13:01:33.917Z,100053.81
2023-04-11T13:04:02.717Z,100081.50
2023-04-11T13:06:34.427Z,100080.78
2023-04-11T13:09:07.034Z,100078.03
2023-04-11T13:11:37.691Z,100086.47
2023-04-11T13:14:31.272Z,100066.56
2023-04-11T13:17:01.463Z,100054.97
2023-04-11T13:19:47.986Z,100072.31
2023-04-11T13:22:16.986Z,100071.63
2023-04-11T13:24:53.489Z,100057.13
2023-04-11T13:27:47.878Z,100022.34
2023-04-11T13:30:30.569Z,100031.41
2023-04-11T13:33:10.817Z,100050.69
2023-04-11T13:35:42.440Z,100034.25
2023-04-11T13:38:14.713Z,100049.78
2023-04-11T13:40:45.575Z,100052.84
2023-04-11T13:43:14.939Z,100044.09
2023-04-11T13:45:43.351Z,100034.31
2023-04-11T13:48:11.644Z,100055.13
2023-04-11T13:50:41.536Z,100055.16
2023-04-11T13:53:13.783Z,100042.84
2023-04-11T13:55:42.529Z,100061.81
2023-04-11T13:58:14.596Z,100036.94
2023-04-11T14:00:45.805Z,100076.06
2023-04-11T14:03:15.963Z,100063.34
2023-04-11T14:05:48.286Z,100054.31
2023-04-11T14:08:17.304Z,100013.94
2023-04-11T14:10:48.807Z,100023.03
2023-04-11T14:17:41.668Z,100077.25
2023-04-11T14:20:12.386Z,100073.81
2023-04-11T14:22:46.991Z,100069.84
2023-04-11T14:25:23.504Z,100062.22
2023-04-11T14:27:54.622Z,100022.75
2023-04-11T14:30:24.077Z,100075.22
2023-04-11T14:32:56.940Z,100079.84
2023-04-11T14:35:25.746Z,100066.00
2023-04-11T14:37:57.180Z,100072.47
2023-04-11T14:40:26.146Z,100070.81
2023-04-11T14:42:55.001Z,100051.88
2023-04-11T14:45:23.776Z,100062.66
2023-04-11T14:47:52.833Z,100058.00
2023-04-11T14:50:22.511Z,100063.66
2023-04-11T14:52:53.208Z,100048.78
2023-04-11T14:55:22.656Z,100031.97
2023-04-11T14:57:57.642Z,100057.78
2023-04-11T15:00:26.572Z,100039.72
2023-04-11T15:02:58.496Z,100066.34
2023-04-11T15:05:43.921Z,100070.75
2023-04-11T15:08:51.235Z,100012.75
2023-04-11T15:11:46.372Z,100023.91
2023-04-11T15:18:25.934Z,100079.72
2023-04-11T15:20:57.406Z,100061.56
2023-04-11T15:23:27.098Z,100069.94
2023-04-11T15:25:57.079Z,100072.44
2023-04-11T15:28:27.805Z,100074.16
2023-04-11T15:30:56.864Z,100079.06
2023-04-11T15:36:32.676Z,100069.78
2023-04-11T15:39:01.168Z,100080.41
2023-04-11T15:41:30.453Z,100078.66
2023-04-11T15:44:00.838Z,100076.19
2023-04-11T15:46:31.096Z,100070.38
2023-04-11T15:49:08.285Z,100065.53
2023-04-11T15:51:38.680Z,100059.00
2023-04-11T15:54:10.470Z,99997.03
2023-04-11T15:56:39.835Z,100054.97
2023-04-11T15:59:23.214Z,100058.41
2023-04-11T16:01:51.530Z,100037.34
2023-04-11T16:04:21.430Z,100060.69
2023-04-11T16:06:52.576Z,100053.66
2023-04-11T16:09:21.022Z,100051.72
2023-04-11T16:11:51.092Z,100052.38
2023-04-11T16:14:20.097Z,100040.72
2023-04-11T16:16:48.600Z,100052.22
2023-04-11T16:19:22.564Z,100051.91
2023-04-11T16:21:53.278Z,100044.63
2023-04-11T16:24:22.799Z,100045.72
2023-04-11T16:26:51.236Z,100027.03
2023-04-11T16:29:19.141Z,100040.81
2023-04-11T16:31:47.914Z,100041.59
2023-04-11T16:34:17.760Z,100037.53
2023-04-11T16:36:48.471Z,100001.13
2023-04-11T16:39:20.465Z,100032.25
2023-04-11T16:41:49.220Z,100040.38
2023-04-11T16:44:19.073Z,100030.47
2023-04-11T16:46:46.946Z,100036.41
2023-04-11T16:49:16.307Z,100022.44
2023-04-11T16:51:44.340Z,100022.38
2023-04-11T16:54:13.966Z,100029.47
2023-04-11T16:56:45.032Z,100020.38
2023-04-11T16:59:13.750Z,100022.25
2023-04-11T17:01:43.050Z,100035.81
2023-04-11T17:04:11.387Z,100006.34
2023-04-11T17:06:42.718Z,100012.06
2023-04-11T17:09:11.535Z,100028.97
2023-04-11T17:11:43.740Z,100009.06
2023-04-11T17:14:11.777Z,100024.97
2023-04-11T17:16:40.341Z,100025.09
2023-04-11T17:19:08.624Z,100013.81
2023-04-11T17:21:38.918Z,100021.47
2023-04-11T17:24:07.955Z,100002.56
2023-04-11T17:26:37.714Z,99974.69
2023-04-11T17:29:08.006Z,100011.59
2023-04-11T17:31:36.104Z,99996.25
2023-04-11T17:34:04.421Z,100026.88
2023-04-11T17:36:33.389Z,99990.44
2023-04-11T17:39:04.494Z,99995.72
2023-04-11T17:41:33.586Z,100026.69
2023-04-11T17:44:01.989Z,99990.97
2023-04-11T17:46:33.732Z,99994.34
2023-04-11T17:49:02.036Z,100004.19
2023-04-11T17:51:32.559Z,99997.69
2023-04-11T17:54:00.868Z,99999.69
2023-04-11T17:56:31.254Z,100041.84
2023-04-11T17:58:59.936Z,100039.69
2023-04-11T18:01:32.584Z,100021.75
2023-04-11T18:04:07.885Z,100048.50
2023-04-11T18:06:36.008Z,100052.84
2023-04-11T18:09:08.182Z,100039.63
2023-04-11T18:11:47.521Z,100038.69
2023-04-11T18:14:16.937Z,100018.34
2023-04-11T18:16:53.278Z,100051.28
2023-04-11T18:19:26.124Z,100057.06
2023-04-11T18:21:55.474Z,100040.13
2023-04-11T18:24:23.802Z,100033.41
2023-04-11T18:26:54.414Z,100060.06
2023-04-11T18:29:22.641Z,100052.91
2023-04-11T18:31:54.741Z,100062.28
2023-04-11T18:34:26.072Z,100045.63
2023-04-11T18:36:55.033Z,100029.22
2023-04-11T18:39:30.804Z,100065.03
2023-04-11T18:42:00.198Z,100056.28
2023-04-11T18:44:30.901Z,100044.78
2023-04-11T18:47:02.365Z,100039.78
2023-04-11T18:52:23.739Z,100062.19
2023-04-11T18:54:51.779Z,100065.03
2023-04-11T18:57:21.271Z,100025.22
2023-04-11T18:59:51.078Z,100066.00
2023-04-11T19:02:20.227Z,100066.75
2023-04-11T19:04:50.923Z,100057.94
2023-04-11T19:07:21.198Z,100047.88
2023-04-11T19:09:49.960Z,100044.25
2023-04-11T19:12:24.161Z,100050.16
2023-04-11T19:14:53.101Z,100044.66
2023-04-11T19:17:24.409Z,100051.38
2023-04-11T19:19:54.257Z,100020.88
2023-04-11T19:22:22.855Z,100043.25
2023-04-11T19:24:52.623Z,100041.56
2023-04-11T19:27:22.718Z,100046.91
2023-04-11T19:29:53.776Z,100045.97
2023-04-11T19:32:23.757Z,100030.38
2023-04-11T19:34:54.848Z,100040.28
2023-04-11T19:37:23.909Z,100038.41
2023-04-11T19:39:52.216Z,99953.84
2023-04-11T19:42:20.995Z,100008.59
2023-04-11T19:44:49.363Z,100026.09
2023-04-11T19:47:22.075Z,100019.88
2023-04-11T19:49:54.303Z,100027.78
2023-04-11T19:52:27.993Z,100023.97
2023-04-11T19:55:12.871Z,99980.69
2023-04-11T19:57:43.448Z,100003.38
2023-04-11T20:00:14.335Z,99989.69
2023-04-11T20:02:46.107Z,99995.72
2023-04-11T20:05:18.817Z,100015.00
2023-04-11T20:07:48.472Z,100015.34
2023-04-11T20:10:17.416Z,100006.56
2023-04-11T20:12:48.909Z,100014.75
2023-04-11T20:15:17.129Z,99984.38
2023-04-11T20:17:46.471Z,99998.56
2023-04-11T20:20:19.570Z,100000.91
2023-04-11T20:22:49.383Z,100015.09
2023-04-11T20:25:17.536Z,100004.47
2023-04-11T20:27:50.581Z,99980.00
2023-04-11T20:30:21.129Z,99998.91
2023-04-11T20:32:50.966Z,99942.16
2023-04-11T20:35:21.685Z,99971.81
2023-04-11T20:37:51.379Z,99953.25
2023-04-11T20:40:22.240Z,99983.75
2023-04-11T20:42:53.299Z,99978.06
2023-04-11T20:45:26.149Z,99970.38
2023-04-11T20:47:58.080Z,99986.22
2023-04-11T20:50:33.435Z,99979.63
2023-04-11T20:53:02.841Z,99976.81
2023-04-11T20:55:33.407Z,99967.31
2023-04-11T20:58:07.376Z,99961.16
2023-04-11T21:00:42.695Z,99953.13
2023-04-11T21:03:11.211Z,99957.16
2023-04-11T21:05:46.569Z,99954.66
2023-04-11T21:08:15.653Z,99948.41
2023-04-11T21:10:43.911Z,99901.81
2023-04-11T21:13:17.274Z,99955.16
2023-04-11T21:15:47.897Z,99916.00
2023-04-11T21:18:19.508Z,99936.22
2023-04-11T21:20:51.067Z,99934.22
2023-04-11T21:23:20.833Z,99886.41
2023-04-11T21:25:59.910Z,99931.13
2023-04-11T21:28:30.328Z,99922.56
2023-04-11T21:30:59.208Z,99910.16
2023-04-11T21:33:27.634Z,99932.41
2023-04-11T21:35:57.328Z,99878.59
2023-04-11T21:38:26.219Z,99904.66
2023-04-11T21:40:54.579Z,99921.88
2023-04-11T21:43:25.456Z,99919.47
2023-04-11T21:45:53.752Z,99879.91
2023-04-11T21:48:23.176Z,99905.66
2023-04-11T21:50:52.988Z,99895.28
2023-04-11T21:53:22.582Z,99858.66
2023-04-11T21:55:52.197Z,99903.25
2023-04-11T21:58:29.102Z,99856.50
2023-04-11T22:00:57.992Z,99896.19
2023-04-11T22:03:29.085Z,99881.44
2023-04-11T22:05:59.113Z,99886.28
2023-04-11T22:08:29.526Z,99860.38
2023-04-11T22:10:58.292Z,99875.63
2023-04-11T22:13:27.351Z,99877.41
2023-04-11T22:16:05.526Z,99870.44
2023-04-11T22:18:38.482Z,99866.81
2023-04-11T22:21:09.437Z,99869.97
2023-04-11T22:23:39.060Z,99876.34
2023-04-11T22:26:09.371Z,99864.91
2023-04-11T22:28:38.705Z,99827.91
2023-04-11T22:31:09.610Z,99852.97
2023-04-11T22:33:38.064Z,99859.81
2023-04-11T22:36:06.494Z,99871.66
2023-04-11T22:38:35.173Z,99865.06
2023-04-11T22:41:06.422Z,99864.81
2023-04-11T22:43:35.759Z,99858.16
2023-04-11T22:46:08.947Z,99855.69
2023-04-11T22:48:40.799Z,99847.53
2023-04-11T22:51:09.219Z,99844.59
2023-04-11T22:53:42.189Z,99827.09
2023-04-11T22:56:12.972Z,99842.31
2023-04-11T22:58:42.583Z,99817.75
2023-04-11T23:01:15.584Z,99826.00
2023-04-11T23:03:43.495Z,99827.28
2023-04-11T23:06:14.378Z,99827.16
2023-04-11T23:08:43.936Z,99828.13
2023-04-11T23:11:15.526Z,99807.22
2023-04-11T23:13:43.381Z,99790.47
2023-04-11T23:16:13.346Z,99810.53
2023-04-11T23:18:44.765Z,99803.88
2023-04-11T23:21:14.553Z,99792.03
2023-04-11T23:23:43.935Z,99810.59
2023-04-11T23:26:24.397Z,99803.94
2023-04-11T23:28:56.926Z,99796.97
2023-04-11T23:31:27.722Z,99790.59
2023-04-11T23:33:57.288Z,99779.97
2023-04-11T23:36:26.696Z,99781.75
2023-04-11T23:38:54.833Z,99779.47
2023-04-11T23:41:30.758Z,99742.66
2023-04-11T23:44:00.959Z,99759.81
2023-04-11T23:46:32.651Z,99762.38
2023-04-11T23:49:01.572Z,99762.69
2023-04-11T23:51:35.060Z,99754.44
2023-04-11T23:54:03.116Z,99749.22
2023-04-11T23:56:32.581Z,99726.31
2023-04-11T23:59:01.894Z,99738.50
